Thargomindah, Australia
Current Conditions -  °F | °C
As of 9:00 PM on Friday 24 Oct 2014 (Local Time) from YBCV Reporting Station
Clear Clear  
Wind Chill: 77°   Ceiling: Unl
Heat Index: 78°   Visibility: 6mi
Dew Point: 43°   Wind: 0mph
Humidity: 29%   Direction: NA
Pressure: 30.03"   Gusts: NA
Location:  28°S, 143.82°E
Report Text: YBCV 241100Z AUTO 00000KT 9999 // NCD 25/06 Q1017
Loading
Personal Weather Stations






























Interactive Weather Map
Tropical Storm Tracking
New forecast layout! Learn more

10-Day Weather Forecast

Advertisements
Track Severe Weather on mobile